Time;durP1;ratioP1;P1;durP2;ratioP2;P2;SDS_P1;SDS_P2;PMS_P1;PMS_P2;Temp;Humidity;BMP_temperature;BMP_pressure;BME280_temperature;BME280_humidity;BME280_pressure;Samples;Min_cycle;Max_cycle;Signal;HPM_P1;HPM_P2
2024/01/01 00:01:38;;;;;;;39.30;23.23;;;7.70;99.90;;;;;;5074961;28;20051;-81
2024/01/01 00:04:04;;;;;;;33.60;18.00;;;7.70;99.90;;;;;;5075709;28;20049;-81
2024/01/01 00:06:29;;;;;;;36.53;23.37;;;7.70;99.90;;;;;;5074421;28;20334;-81
2024/01/01 00:08:55;;;;;;;27.53;18.70;;;7.70;99.90;;;;;;5073770;28;20282;-81
2024/01/01 00:11:21;;;;;;;42.27;25.87;;;7.70;99.90;;;;;;5074065;28;20494;-81
2024/01/01 00:13:47;;;;;;;31.73;20.73;;;7.70;99.90;;;;;;5073745;28;20036;-81
2024/01/01 00:16:14;;;;;;;25.87;16.93;;;7.70;99.90;;;;;;5074101;28;20101;-81
2024/01/01 00:18:41;;;;;;;26.47;15.80;;;7.70;99.90;;;;;;5073918;28;20286;-81
2024/01/01 00:21:07;;;;;;;24.50;14.90;;;7.60;99.90;;;;;;5073232;28;20309;-81
2024/01/01 00:23:33;;;;;;;27.60;18.07;;;7.60;99.90;;;;;;5074772;28;20286;-82
2024/01/01 00:25:59;;;;;;;29.87;17.33;;;7.60;99.90;;;;;;5075431;28;20302;-81
2024/01/01 00:28:25;;;;;;;22.77;14.23;;;7.50;99.90;;;;;;5075680;28;20372;-81
2024/01/01 00:30:50;;;;;;;22.20;14.07;;;7.50;99.90;;;;;;5075459;28;20080;-80
2024/01/01 00:33:16;;;;;;;26.93;19.10;;;7.50;99.90;;;;;;5075469;28;20131;-81
2024/01/01 00:35:42;;;;;;;20.60;11.90;;;7.50;99.90;;;;;;5075658;28;20096;-82
2024/01/01 00:38:08;;;;;;;37.13;26.37;;;7.50;99.90;;;;;;5074178;28;20049;-81
2024/01/01 00:40:33;;;;;;;27.83;17.57;;;7.50;99.90;;;;;;5057855;28;20044;-82
2024/01/01 00:42:59;;;;;;;28.27;20.63;;;7.50;99.90;;;;;;5075091;28;20052;-81
2024/01/01 00:45:25;;;;;;;36.43;23.03;;;7.50;99.90;;;;;;5075240;28;20041;-82
2024/01/01 00:47:50;;;;;;;36.67;27.00;;;7.50;99.90;;;;;;5074897;28;20048;-80
2024/01/01 00:50:16;;;;;;;38.67;26.63;;;7.50;99.90;;;;;;5074319;28;20136;-81
2024/01/01 00:52:42;;;;;;;42.27;29.10;;;7.50;99.90;;;;;;5074276;28;20051;-81
2024/01/01 00:55:07;;;;;;;40.10;26.93;;;7.50;99.90;;;;;;5074908;28;20080;-81
2024/01/01 00:57:33;;;;;;;41.67;30.33;;;7.50;99.90;;;;;;5074350;28;20055;-81
2024/01/01 00:59:59;;;;;;;52.33;39.97;;;7.50;99.90;;;;;;5074860;28;20060;-81
2024/01/01 01:02:24;;;;;;;52.57;35.67;;;7.40;99.90;;;;;;5057299;28;20051;-81
2024/01/01 01:04:51;;;;;;;54.77;35.13;;;7.40;99.90;;;;;;5075044;28;20134;-80
2024/01/01 01:07:17;;;;;;;54.33;37.53;;;7.40;99.90;;;;;;5075071;28;20074;-80
2024/01/01 01:09:42;;;;;;;55.70;36.10;;;7.40;99.90;;;;;;5074839;28;20279;-80
2024/01/01 01:12:08;;;;;;;52.17;37.87;;;7.40;99.90;;;;;;5073748;28;20040;-81
2024/01/01 01:14:34;;;;;;;50.63;37.40;;;7.40;99.90;;;;;;5074836;28;20060;-81
2024/01/01 01:16:59;;;;;;;59.30;37.17;;;7.40;99.90;;;;;;5074384;28;20037;-81
2024/01/01 01:19:25;;;;;;;48.53;37.17;;;7.40;99.90;;;;;;5074821;28;20131;-81
2024/01/01 01:21:51;;;;;;;52.27;38.47;;;7.40;99.90;;;;;;5074633;28;20048;-81
2024/01/01 01:24:18;;;;;;;53.37;38.40;;;7.40;99.90;;;;;;5073151;28;20087;-80
2024/01/01 01:26:44;;;;;;;54.27;35.07;;;7.40;99.90;;;;;;5074617;28;20048;-81
2024/01/01 01:29:10;;;;;;;48.27;35.03;;;7.40;99.90;;;;;;5074289;28;20318;-81
2024/01/01 01:31:36;;;;;;;44.27;32.67;;;7.40;99.90;;;;;;5074321;28;20851;-81
2024/01/01 01:34:02;;;;;;;52.83;33.73;;;7.40;99.90;;;;;;5089960;28;20365;-81
2024/01/01 01:36:27;;;;;;;54.50;35.87;;;7.40;99.90;;;;;;5074310;28;20125;-80
2024/01/01 01:38:53;;;;;;;46.17;34.73;;;7.40;99.90;;;;;;5074283;28;20126;-80
2024/01/01 01:41:20;;;;;;;51.67;36.33;;;7.40;99.90;;;;;;5073977;28;20044;-80
2024/01/01 01:43:46;;;;;;;54.53;38.73;;;7.40;99.90;;;;;;5073255;28;20056;-81
2024/01/01 01:46:13;;;;;;;45.77;34.73;;;7.40;99.90;;;;;;5073749;28;20295;-81
2024/01/01 01:48:39;;;;;;;57.57;40.77;;;7.50;99.90;;;;;;5074288;28;20051;-80
2024/01/01 01:51:06;;;;;;;55.33;36.70;;;7.50;99.90;;;;;;5072806;28;20606;-80
2024/01/01 01:53:32;;;;;;;46.53;34.97;;;7.50;99.90;;;;;;5074045;28;20352;-80
2024/01/01 01:56:02;;;;;;;42.93;31.93;;;7.50;99.90;;;;;;5073744;28;20347;-79
2024/01/01 01:58:28;;;;;;;47.77;33.00;;;7.50;99.90;;;;;;5073873;28;20274;-80
2024/01/01 02:00:55;;;;;;;41.57;31.00;;;7.50;99.90;;;;;;5073666;28;20283;-80
2024/01/01 02:03:21;;;;;;;44.70;31.93;;;7.50;99.90;;;;;;5073697;28;20377;-81
2024/01/01 02:05:47;;;;;;;49.97;32.60;;;7.50;99.90;;;;;;5072066;28;20660;-81
2024/01/01 02:08:14;;;;;;;45.37;31.63;;;7.40;99.90;;;;;;5070329;28;20298;-81
2024/01/01 02:10:40;;;;;;;41.00;31.20;;;7.50;99.90;;;;;;5070110;28;20060;-81
2024/01/01 02:13:05;;;;;;;43.67;30.80;;;7.50;99.90;;;;;;5070310;28;20291;-81
2024/01/01 02:15:31;;;;;;;41.47;27.23;;;7.40;99.90;;;;;;5070461;28;20043;-81
2024/01/01 02:17:57;;;;;;;44.30;30.37;;;7.40;99.90;;;;;;5071823;28;20098;-81
2024/01/01 02:20:23;;;;;;;44.43;28.73;;;7.40;99.90;;;;;;5071806;28;20052;-81
2024/01/01 02:22:54;;;;;;;44.03;31.17;;;7.30;99.90;;;;;;5072442;28;20382;-81
2024/01/01 02:25:20;;;;;;;41.50;28.87;;;7.30;99.90;;;;;;5073199;28;20302;-81
2024/01/01 02:27:45;;;;;;;40.07;27.70;;;7.30;99.90;;;;;;5073246;28;20270;-81
2024/01/01 02:30:11;;;;;;;39.37;28.10;;;7.30;99.90;;;;;;5073320;28;20048;-81
2024/01/01 02:32:38;;;;;;;43.20;27.73;;;7.30;99.90;;;;;;5073556;28;20040;-81
2024/01/01 02:35:07;;;;;;;37.97;25.60;;;7.30;99.90;;;;;;5073289;28;20546;-80
2024/01/01 02:37:34;;;;;;;38.03;25.13;;;7.20;99.90;;;;;;5073458;28;20290;-80
2024/01/01 02:40:00;;;;;;;39.53;22.90;;;7.30;99.90;;;;;;5073333;28;20382;-80
2024/01/01 02:42:27;;;;;;;35.00;22.77;;;7.30;99.90;;;;;;5072897;28;20686;-81
2024/01/01 02:44:53;;;;;;;33.17;21.73;;;7.30;99.90;;;;;;5073295;28;20316;-80
2024/01/01 02:47:18;;;;;;;38.67;22.60;;;7.30;99.90;;;;;;5073125;28;20386;-80
2024/01/01 02:49:44;;;;;;;37.80;23.60;;;7.20;99.90;;;;;;5073282;28;20045;-80
2024/01/01 02:52:10;;;;;;;32.77;22.13;;;7.20;99.90;;;;;;5072924;28;20071;-79
2024/01/01 02:54:36;;;;;;;36.10;21.50;;;7.20;99.90;;;;;;5071899;28;20081;-79
2024/01/01 02:57:02;;;;;;;35.30;20.97;;;7.20;99.90;;;;;;5073037;28;20052;-79
2024/01/01 02:59:27;;;;;;;33.37;20.13;;;7.20;99.90;;;;;;5071943;28;20287;-79
2024/01/01 03:01:53;;;;;;;35.30;20.00;;;7.20;99.90;;;;;;5073199;28;20056;-79
2024/01/01 03:04:19;;;;;;;31.60;17.67;;;7.20;99.90;;;;;;5071931;28;20044;-79
2024/01/01 03:06:44;;;;;;;28.33;18.47;;;7.20;99.90;;;;;;5071967;28;20044;-79
2024/01/01 03:09:10;;;;;;;30.27;17.77;;;7.20;99.90;;;;;;5088527;28;20052;-79
2024/01/01 03:11:36;;;;;;;32.53;17.77;;;7.20;99.90;;;;;;5072759;28;20045;-79
2024/01/01 03:14:01;;;;;;;28.33;16.40;;;7.10;99.90;;;;;;5072219;28;20128;-79
2024/01/01 03:16:27;;;;;;;29.03;16.37;;;7.10;99.90;;;;;;5072809;28;20529;-80
2024/01/01 03:18:53;;;;;;;29.73;16.77;;;7.20;99.90;;;;;;5072121;28;20071;-80
2024/01/01 03:21:18;;;;;;;26.23;15.57;;;7.20;99.90;;;;;;5073851;28;20059;-80
2024/01/01 03:23:45;;;;;;;29.47;15.23;;;7.20;99.90;;;;;;5075605;28;20052;-80
2024/01/01 03:26:11;;;;;;;29.90;14.47;;;7.20;99.90;;;;;;5076563;28;20044;-79
2024/01/01 03:28:37;;;;;;;27.27;14.13;;;7.20;99.90;;;;;;5075787;28;20279;-79
2024/01/01 03:31:03;;;;;;;25.70;12.47;;;7.20;99.90;;;;;;5076926;28;20293;-79
2024/01/01 03:33:32;;;;;;;22.50;11.50;;;7.10;99.90;;;;;;5076685;28;20056;-79
2024/01/01 03:35:58;;;;;;;22.47;11.60;;;7.20;99.90;;;;;;5076666;28;20114;-79
2024/01/01 03:38:23;;;;;;;22.87;10.67;;;7.20;99.90;;;;;;5075381;28;20291;-79
2024/01/01 03:40:49;;;;;;;25.53;10.03;;;7.20;99.90;;;;;;5075440;28;20059;-79
2024/01/01 03:43:15;;;;;;;20.83;9.57;;;7.20;99.90;;;;;;5076508;28;20051;-78
2024/01/01 03:45:41;;;;;;;19.97;10.27;;;7.20;99.90;;;;;;5076400;28;20040;-79
2024/01/01 03:48:08;;;;;;;23.97;9.70;;;7.20;99.90;;;;;;5076478;28;20134;-79
2024/01/01 03:50:33;;;;;;;21.67;8.90;;;7.20;99.90;;;;;;5076223;28;20287;-80
2024/01/01 03:52:59;;;;;;;22.10;8.80;;;7.20;99.90;;;;;;5076440;28;20271;-80
2024/01/01 03:55:25;;;;;;;24.03;9.60;;;7.20;99.90;;;;;;5076117;28;20052;-81
2024/01/01 03:57:51;;;;;;;19.03;9.10;;;7.20;99.90;;;;;;5076388;28;20344;-81
2024/01/01 04:00:17;;;;;;;20.27;8.77;;;7.20;99.90;;;;;;5075968;28;20295;-80
2024/01/01 04:02:46;;;;;;;20.23;9.77;;;7.20;99.90;;;;;;5076213;28;20283;-81
2024/01/01 04:05:12;;;;;;;23.97;9.33;;;7.20;99.90;;;;;;5076098;28;20795;-81
2024/01/01 04:07:38;;;;;;;27.73;9.07;;;7.20;99.90;;;;;;5074816;28;20286;-81
2024/01/01 04:10:06;;;;;;;21.40;8.90;;;7.10;99.90;;;;;;5076052;28;20279;-81
2024/01/01 04:12:32;;;;;;;19.97;8.83;;;7.10;99.90;;;;;;5075933;28;20045;-81
2024/01/01 04:14:57;;;;;;;20.13;8.00;;;7.10;99.90;;;;;;5075990;28;20287;-81
2024/01/01 04:17:23;;;;;;;23.23;8.03;;;7.20;99.90;;;;;;5074521;28;20059;-80
2024/01/01 04:19:49;;;;;;;20.17;6.80;;;7.10;99.90;;;;;;5075971;28;20048;-81
2024/01/01 04:22:15;;;;;;;17.03;7.23;;;7.10;99.90;;;;;;5075565;28;20044;-79
2024/01/01 04:24:44;;;;;;;16.80;6.50;;;7.10;99.90;;;;;;5075664;28;20044;-80
2024/01/01 04:27:10;;;;;;;16.20;5.37;;;7.10;99.90;;;;;;5075520;28;20338;-80
2024/01/01 04:29:36;;;;;;;17.80;6.03;;;7.10;99.90;;;;;;5075364;28;20776;-80
2024/01/01 04:32:02;;;;;;;17.50;5.40;;;7.10;99.90;;;;;;5075481;28;20279;-80
2024/01/01 04:34:28;;;;;;;17.10;5.00;;;7.10;99.90;;;;;;5075267;28;20045;-80
2024/01/01 04:36:53;;;;;;;13.47;5.60;;;7.10;99.90;;;;;;5074361;28;20287;-80
2024/01/01 04:39:19;;;;;;;14.30;4.40;;;7.10;99.90;;;;;;5075204;28;20056;-80
2024/01/01 04:41:45;;;;;;;14.10;4.80;;;7.10;99.90;;;;;;5075872;28;20041;-79
2024/01/01 04:44:11;;;;;;;14.53;4.83;;;7.10;99.90;;;;;;5075592;28;20461;-79
2024/01/01 04:46:37;;;;;;;14.07;4.67;;;7.10;99.90;;;;;;5075248;28;20401;-78
2024/01/01 04:49:03;;;;;;;11.97;4.23;;;7.00;99.90;;;;;;5074486;28;20058;-77
2024/01/01 04:51:28;;;;;;;14.77;4.70;;;7.10;99.90;;;;;;5074964;28;20132;-78
2024/01/01 04:53:54;;;;;;;14.97;5.00;;;7.00;99.90;;;;;;5075177;28;20037;-78
2024/01/01 04:56:21;;;;;;;14.67;4.10;;;7.10;99.90;;;;;;5075136;28;20087;-77
2024/01/01 04:58:47;;;;;;;12.30;4.40;;;7.10;99.90;;;;;;5074021;28;20637;-78
2024/01/01 05:01:13;;;;;;;16.63;4.80;;;7.00;99.90;;;;;;5075078;28;20289;-78
2024/01/01 05:03:39;;;;;;;13.00;4.40;;;7.10;99.90;;;;;;5074835;28;20761;-80
2024/01/01 05:06:05;;;;;;;20.77;4.80;;;7.10;99.90;;;;;;5057044;28;20101;-80
2024/01/01 05:08:32;;;;;;;19.37;4.60;;;7.10;99.90;;;;;;5074563;28;20071;-79
2024/01/01 05:10:58;;;;;;;13.20;4.37;;;7.10;99.90;;;;;;5074230;28;20087;-80
2024/01/01 05:13:23;;;;;;;19.37;5.00;;;7.10;99.90;;;;;;5074684;28;20796;-79
2024/01/01 05:15:49;;;;;;;17.77;4.80;;;7.10;99.90;;;;;;5075106;28;20084;-80
2024/01/01 05:18:15;;;;;;;17.30;4.07;;;7.10;99.90;;;;;;5073866;28;20479;-79
2024/01/01 05:20:42;;;;;;;13.60;4.00;;;7.10;99.90;;;;;;5074549;28;20959;-79
2024/01/01 05:23:07;;;;;;;14.60;4.40;;;7.10;99.90;;;;;;5074605;28;20076;-78
2024/01/01 05:25:33;;;;;;;11.23;4.00;;;7.10;99.90;;;;;;5073146;28;20788;-78
2024/01/01 05:27:59;;;;;;;16.77;4.17;;;7.20;99.90;;;;;;5073588;28;20052;-79
2024/01/01 05:30:27;;;;;;;14.97;4.13;;;7.20;99.90;;;;;;5074304;28;20047;-78
2024/01/01 05:32:53;;;;;;;14.23;3.37;;;7.20;99.90;;;;;;5073321;28;20079;-78
2024/01/01 05:35:18;;;;;;;8.90;3.37;;;7.20;99.90;;;;;;5074338;28;20390;-79
2024/01/01 05:37:44;;;;;;;14.27;3.77;;;7.20;99.90;;;;;;5072647;28;20048;-79
2024/01/01 05:40:10;;;;;;;11.67;3.87;;;7.20;99.90;;;;;;5074365;28;20092;-79
2024/01/01 05:42:36;;;;;;;15.40;3.50;;;7.20;99.90;;;;;;5073903;28;20045;-79
2024/01/01 05:45:03;;;;;;;12.20;3.47;;;7.20;99.90;;;;;;5073569;28;20337;-79
2024/01/01 05:47:29;;;;;;;14.97;3.20;;;7.20;99.90;;;;;;5074049;28;20468;-79
2024/01/01 05:49:54;;;;;;;13.97;3.37;;;7.20;99.90;;;;;;5073171;28;20291;-79
2024/01/01 05:52:21;;;;;;;12.50;3.47;;;7.20;99.90;;;;;;5072916;28;20048;-79
2024/01/01 05:54:48;;;;;;;18.67;3.90;;;7.30;99.90;;;;;;5072954;28;20055;-78
2024/01/01 05:57:14;;;;;;;13.73;3.93;;;7.30;99.90;;;;;;5074033;28;20279;-79
2024/01/01 05:59:40;;;;;;;19.17;3.80;;;7.20;99.90;;;;;;5072846;28;20285;-79
2024/01/01 06:02:05;;;;;;;16.63;3.63;;;7.30;99.90;;;;;;5074029;28;20105;-78
2024/01/01 06:04:31;;;;;;;17.03;3.87;;;7.30;99.90;;;;;;5079188;28;20501;-78
2024/01/01 06:06:57;;;;;;;17.63;4.03;;;7.30;99.90;;;;;;5093978;28;20546;-78
2024/01/01 06:09:22;;;;;;;13.03;3.23;;;7.30;99.90;;;;;;5094291;28;20040;-78
2024/01/01 06:11:49;;;;;;;17.57;3.47;;;7.30;99.90;;;;;;5092873;28;20237;-78
2024/01/01 06:14:15;;;;;;;14.30;3.27;;;7.30;99.90;;;;;;5094077;28;20093;-78
2024/01/01 06:16:43;;;;;;;14.63;3.47;;;7.30;99.90;;;;;;5092465;28;20714;-79
2024/01/01 06:19:10;;;;;;;15.30;3.43;;;7.30;99.90;;;;;;5093701;28;20494;-79
2024/01/01 06:21:35;;;;;;;15.00;3.70;;;7.40;99.90;;;;;;5093530;28;20638;-79
2024/01/01 06:24:01;;;;;;;18.07;4.60;;;7.40;99.90;;;;;;5093893;28;20311;-79
2024/01/01 06:26:27;;;;;;;24.00;4.73;;;7.30;99.90;;;;;;5093858;28;20482;-79
2024/01/01 06:28:52;;;;;;;25.63;4.90;;;7.40;99.90;;;;;;5093620;28;20493;-80
2024/01/01 06:31:18;;;;;;;23.73;5.53;;;7.40;99.90;;;;;;5093554;28;20048;-80
2024/01/01 06:33:44;;;;;;;19.93;4.70;;;7.40;99.90;;;;;;5092538;28;20044;-80
2024/01/01 06:36:10;;;;;;;20.23;5.33;;;7.40;99.90;;;;;;5093213;28;20068;-79
2024/01/01 06:38:36;;;;;;;25.97;4.87;;;7.40;99.90;;;;;;5092467;28;20048;-79
2024/01/01 06:41:02;;;;;;;21.47;4.40;;;7.40;99.90;;;;;;5093388;28;20798;-79
2024/01/01 06:43:28;;;;;;;20.90;3.87;;;7.40;99.90;;;;;;5093481;28;20278;-79
2024/01/01 06:45:54;;;;;;;24.20;4.70;;;7.40;99.90;;;;;;5093164;28;20348;-78
2024/01/01 06:48:20;;;;;;;24.37;4.97;;;7.40;99.90;;;;;;5093323;28;20055;-79
2024/01/01 06:50:45;;;;;;;21.83;4.43;;;7.40;99.90;;;;;;5092930;28;20104;-79
2024/01/01 06:53:11;;;;;;;19.10;3.80;;;7.40;99.90;;;;;;5093413;28;20040;-79
2024/01/01 06:55:37;;;;;;;21.73;4.47;;;7.40;99.90;;;;;;5074709;28;20051;-78
2024/01/01 06:58:03;;;;;;;21.47;4.27;;;7.50;99.90;;;;;;5093305;28;20612;-80
2024/01/01 07:00:29;;;;;;;42.07;7.40;;;7.50;99.90;;;;;;5093288;28;20059;-83
2024/01/01 07:02:55;;;;;;;13.43;3.13;;;7.50;99.90;;;;;;5092971;28;20282;-81
2024/01/01 07:05:21;;;;;;;9.27;2.57;;;7.40;99.90;;;;;;5093001;28;20040;-81
2024/01/01 07:07:47;;;;;;;7.50;1.67;;;7.40;99.90;;;;;;5093132;28;20059;-82
2024/01/01 07:10:13;;;;;;;10.27;1.90;;;7.20;99.90;;;;;;5093109;28;20362;-82
2024/01/01 07:12:39;;;;;;;11.57;1.50;;;7.20;99.90;;;;;;5092868;28;20055;-80
2024/01/01 07:15:05;;;;;;;9.97;1.50;;;7.10;99.90;;;;;;5093021;28;20048;-81
2024/01/01 07:17:34;;;;;;;7.73;1.23;;;7.00;99.90;;;;;;5093008;28;20059;-79
2024/01/01 07:20:00;;;;;;;7.40;1.47;;;7.00;99.90;;;;;;5092919;28;20322;-78
2024/01/01 07:22:26;;;;;;;7.83;1.20;;;6.90;99.90;;;;;;5093133;28;20329;-79
2024/01/01 07:24:52;;;;;;;3.90;1.20;;;6.90;99.90;;;;;;5091974;28;20040;-79
2024/01/01 07:27:17;;;;;;;5.87;1.30;;;6.90;99.90;;;;;;5092208;28;20138;-79
2024/01/01 07:29:43;;;;;;;10.27;1.40;;;6.90;99.90;;;;;;5092906;28;20126;-79
2024/01/01 07:32:09;;;;;;;12.63;1.73;;;6.90;99.90;;;;;;5091913;28;20052;-78
2024/01/01 07:34:35;;;;;;;9.20;2.00;;;6.90;99.90;;;;;;5091720;28;20036;-78
2024/01/01 07:37:01;;;;;;;5.93;1.60;;;6.90;99.90;;;;;;5092642;28;20087;-77
2024/01/01 07:39:29;;;;;;;8.97;2.33;;;6.90;99.90;;;;;;5092919;28;20684;-77
2024/01/01 07:41:55;;;;;;;9.57;1.90;;;6.90;99.90;;;;;;5092610;28;20051;-76
2024/01/01 07:44:21;;;;;;;7.23;1.77;;;6.90;99.90;;;;;;5092900;28;20285;-76
2024/01/01 07:46:48;;;;;;;9.40;1.70;;;6.90;99.90;;;;;;5092492;28;20290;-76
2024/01/01 07:49:14;;;;;;;6.07;1.30;;;6.90;99.90;;;;;;5092967;28;20386;-76
2024/01/01 07:51:40;;;;;;;6.37;1.83;;;6.90;99.90;;;;;;5092713;28;20282;-76
2024/01/01 07:54:06;;;;;;;5.93;1.50;;;6.90;99.90;;;;;;5092814;28;20379;-75
2024/01/01 07:56:32;;;;;;;11.53;2.27;;;6.90;99.90;;;;;;5092858;28;20266;-76
2024/01/01 07:58:58;;;;;;;9.93;2.20;;;6.90;99.90;;;;;;5091494;28;20317;-74
2024/01/01 08:01:26;;;;;;;15.50;2.10;;;6.90;99.90;;;;;;5092484;28;20040;-73
2024/01/01 08:03:52;;;;;;;8.37;1.80;;;6.90;99.90;;;;;;5091298;28;20171;-75
2024/01/01 08:06:18;;;;;;;7.63;2.17;;;6.90;99.90;;;;;;5092403;28;20393;-76
2024/01/01 08:08:44;;;;;;;9.80;2.43;;;6.90;99.90;;;;;;5094849;28;20055;-73
2024/01/01 08:11:09;;;;;;;13.40;2.33;;;6.90;99.90;;;;;;5096457;28;20401;-73
2024/01/01 08:13:36;;;;;;;17.90;2.97;;;6.90;99.90;;;;;;5096379;28;20044;-73
2024/01/01 08:16:02;;;;;;;14.97;2.87;;;6.90;99.90;;;;;;5096013;28;20048;-72
2024/01/01 08:18:28;;;;;;;15.83;2.50;;;7.00;99.90;;;;;;5095984;28;20286;-74
2024/01/01 08:20:54;;;;;;;11.57;2.30;;;7.00;99.90;;;;;;5095907;28;20613;-74
2024/01/01 08:23:20;;;;;;;10.70;2.43;;;7.00;99.90;;;;;;5096132;28;20289;-74
2024/01/01 08:25:46;;;;;;;14.03;2.57;;;7.00;99.90;;;;;;5095803;28;20101;-75
2024/01/01 08:28:12;;;;;;;11.90;2.33;;;7.00;99.90;;;;;;5096033;28;20126;-75
2024/01/01 08:30:38;;;;;;;11.67;2.17;;;7.00;99.90;;;;;;5095799;28;20047;-74
2024/01/01 08:33:05;;;;;;;10.40;1.90;;;7.00;99.90;;;;;;5095852;28;20063;-72
2024/01/01 08:35:31;;;;;;;12.23;2.30;;;7.00;99.90;;;;;;5096105;28;20278;-73
2024/01/01 08:37:57;;;;;;;15.37;2.83;;;7.00;99.90;;;;;;5094323;28;20286;-74
2024/01/01 08:40:23;;;;;;;9.67;1.90;;;7.10;99.90;;;;;;5095873;28;20283;-75
2024/01/01 08:42:50;;;;;;;6.93;1.53;;;7.10;99.90;;;;;;5095511;28;20292;-75
2024/01/01 08:45:20;;;;;;;12.87;1.70;;;7.00;99.90;;;;;;5094530;28;20477;-74
2024/01/01 08:47:48;;;;;;;5.83;1.70;;;6.90;99.90;;;;;;5095579;28;20716;-74
2024/01/01 08:50:14;;;;;;;6.97;1.67;;;6.90;99.90;;;;;;5095165;28;20279;-73
2024/01/01 08:52:42;;;;;;;6.47;1.30;;;6.90;99.90;;;;;;5092405;28;20278;-74
2024/01/01 08:55:08;;;;;;;9.20;1.43;;;6.80;99.90;;;;;;5094890;28;20286;-73
2024/01/01 08:57:34;;;;;;;10.17;1.70;;;6.80;99.90;;;;;;5095005;28;20289;-73
2024/01/01 09:00:00;;;;;;;6.60;1.20;;;6.80;99.90;;;;;;5094978;28;20278;-71
2024/01/01 09:02:25;;;;;;;10.57;1.70;;;6.90;99.90;;;;;;5095491;28;20505;-72
2024/01/01 09:04:51;;;;;;;6.37;1.50;;;6.90;99.90;;;;;;5093755;28;20067;-72
2024/01/01 09:07:17;;;;;;;7.50;1.73;;;6.90;99.90;;;;;;5093861;28;20052;-71
2024/01/01 09:09:43;;;;;;;9.30;1.60;;;6.90;99.90;;;;;;5095195;28;20058;-73
2024/01/01 09:12:09;;;;;;;8.83;2.03;;;6.90;99.90;;;;;;5094897;28;20286;-73
2024/01/01 09:14:35;;;;;;;9.27;1.70;;;6.90;99.90;;;;;;5095165;28;20040;-72
2024/01/01 09:17:01;;;;;;;8.77;1.73;;;7.00;99.90;;;;;;5095083;28;20040;-74
2024/01/01 09:19:26;;;;;;;13.43;2.67;;;7.00;99.90;;;;;;5094063;28;20330;-72
2024/01/01 09:21:52;;;;;;;11.43;2.40;;;7.00;99.90;;;;;;5094689;28;20051;-73
2024/01/01 09:24:18;;;;;;;20.77;3.07;;;7.10;99.90;;;;;;5094755;28;20047;-71
2024/01/01 09:26:43;;;;;;;13.73;2.27;;;7.10;99.90;;;;;;5094838;28;20083;-71
2024/01/01 09:29:09;;;;;;;19.43;3.00;;;7.20;99.90;;;;;;5094458;28;20040;-73
2024/01/01 09:31:35;;;;;;;18.70;3.27;;;7.20;99.90;;;;;;5094938;28;20048;-72
2024/01/01 09:34:03;;;;;;;19.17;3.20;;;7.30;99.90;;;;;;5094556;28;20050;-72
2024/01/01 09:36:29;;;;;;;15.13;3.00;;;7.30;99.90;;;;;;5094787;28;20347;-71
2024/01/01 09:38:55;;;;;;;21.63;2.70;;;7.30;99.90;;;;;;5094599;28;20347;-72
2024/01/01 09:41:24;;;;;;;13.73;2.50;;;7.40;99.90;;;;;;5094500;28;20775;-74
2024/01/01 09:43:51;;;;;;;12.63;3.33;;;7.40;99.90;;;;;;5094406;28;20055;-74
2024/01/01 09:46:17;;;;;;;14.73;2.43;;;7.40;99.90;;;;;;5094143;28;20786;-74
2024/01/01 09:48:44;;;;;;;14.20;2.33;;;7.40;99.90;;;;;;5094460;28;20282;-73
2024/01/01 09:51:10;;;;;;;12.63;2.60;;;7.40;99.90;;;;;;5094133;28;20273;-72
2024/01/01 09:53:36;;;;;;;22.80;3.07;;;7.40;99.90;;;;;;5094360;28;20331;-75
2024/01/01 09:56:02;;;;;;;14.57;2.87;;;7.40;99.90;;;;;;5093358;28;20040;-73
2024/01/01 09:58:28;;;;;;;11.87;2.30;;;7.40;99.90;;;;;;5093631;28;20126;-74
2024/01/01 10:01:10;;;;;;;18.13;2.90;;;7.40;99.90;;;;;;5093808;28;20676;-74
2024/01/01 10:03:37;;;;;;;15.80;3.30;;;7.40;99.90;;;;;;5091251;28;20497;-72
2024/01/01 10:06:12;;;;;;;23.93;3.57;;;7.40;99.90;;;;;;5093329;28;20359;-73
2024/01/01 10:08:39;;;;;;;23.10;3.23;;;7.50;99.90;;;;;;5091234;28;20270;-73
2024/01/01 10:11:20;;;;;;;18.73;3.10;;;7.50;99.90;;;;;;5092872;28;20775;-74
2024/01/01 10:13:49;;;;;;;25.47;3.30;;;7.50;99.90;;;;;;5092058;28;20278;-72
2024/01/01 10:16:25;;;;;;;17.10;3.33;;;7.60;99.90;;;;;;5091952;28;20758;-73
2024/01/01 10:18:56;;;;;;;13.33;2.67;;;7.60;99.90;;;;;;5093520;28;20806;-71
2024/01/01 10:21:29;;;;;;;18.67;2.83;;;7.70;99.90;;;;;;5092688;28;20282;-72
2024/01/01 10:23:56;;;;;;;18.57;3.87;;;7.70;99.90;;;;;;5093841;28;20286;-71
2024/01/01 10:26:22;;;;;;;15.73;2.60;;;7.70;99.90;;;;;;5093723;28;20337;-73
2024/01/01 10:28:48;;;;;;;18.30;3.00;;;7.70;99.90;;;;;;5093743;28;20313;-72
2024/01/01 10:31:15;;;;;;;16.33;2.87;;;7.80;99.90;;;;;;5093294;28;20090;-71
2024/01/01 10:33:42;;;;;;;20.37;3.30;;;7.70;99.90;;;;;;5093592;28;20052;-71
2024/01/01 10:36:08;;;;;;;20.00;2.70;;;7.80;99.90;;;;;;5093315;28;20362;-73
2024/01/01 10:38:36;;;;;;;16.93;3.40;;;7.80;99.90;;;;;;5093989;28;20274;-72
2024/01/01 10:41:03;;;;;;;22.93;3.40;;;7.80;99.90;;;;;;5093419;28;20293;-73
2024/01/01 10:43:29;;;;;;;21.87;3.10;;;7.80;99.90;;;;;;5093808;28;20316;-73
2024/01/01 10:45:58;;;;;;;20.53;3.53;;;7.80;99.90;;;;;;5093597;28;20298;-71
2024/01/01 10:48:24;;;;;;;21.17;3.43;;;7.70;99.90;;;;;;5093249;28;20075;-71
2024/01/01 10:51:10;;;;;;;18.17;2.80;;;7.80;99.90;;;;;;5093580;28;20345;-72
2024/01/01 10:54:08;;;;;;;18.50;3.33;;;7.80;99.90;;;;;;5093433;28;20490;-72
2024/01/01 10:57:04;;;;;;;20.00;2.73;;;7.70;99.90;;;;;;5093323;28;20302;-72
2024/01/01 10:59:43;;;;;;;23.63;3.65;;;7.80;99.90;;;;;;5093704;28;20310;-73
2024/01/01 11:02:10;;;;;;;17.27;2.80;;;7.80;99.90;;;;;;5093084;28;20052;-74
2024/01/01 11:04:36;;;;;;;23.37;3.57;;;7.80;99.90;;;;;;5093216;28;20790;-76
2024/01/01 11:07:02;;;;;;;17.00;3.00;;;7.80;99.90;;;;;;5092854;28;20294;-80
2024/01/01 11:09:28;;;;;;;22.27;3.30;;;7.80;99.90;;;;;;5091871;28;20047;-71
2024/01/01 11:11:55;;;;;;;26.57;3.80;;;7.80;99.90;;;;;;5092958;28;20288;-71
2024/01/01 11:14:44;;;;;;;19.47;3.17;;;7.90;99.90;;;;;;5089878;28;20274;-70
2024/01/01 11:17:11;;;;;;;20.33;2.93;;;7.80;99.90;;;;;;5091161;28;20333;-73
2024/01/01 11:19:39;;;;;;;21.80;3.77;;;7.80;99.90;;;;;;5092422;28;20312;-73
2024/01/01 11:22:33;;;;;;;14.00;2.47;;;7.80;99.90;;;;;;5092603;28;20294;-73
2024/01/01 11:25:00;;;;;;;20.80;2.90;;;7.80;99.90;;;;;;5093102;28;20289;-73
2024/01/01 11:27:32;;;;;;;24.87;3.60;;;7.80;99.90;;;;;;5092672;28;20297;-72
2024/01/01 11:30:02;;;;;;;19.13;3.97;;;7.80;99.90;;;;;;5092795;28;20790;-72
2024/01/01 11:32:28;;;;;;;16.80;3.10;;;7.90;99.90;;;;;;5092829;28;20759;-72
2024/01/01 11:35:23;;;;;;;13.67;3.20;;;7.90;99.90;;;;;;5093227;28;20609;-72
2024/01/01 11:37:48;;;;;;;21.83;3.00;;;7.90;99.90;;;;;;5079518;28;20294;-72
2024/01/01 11:40:14;;;;;;;20.13;2.87;;;7.90;99.90;;;;;;5092689;28;20278;-72
2024/01/01 11:42:40;;;;;;;19.07;3.70;;;7.90;99.90;;;;;;5094454;28;20047;-71
2024/01/01 11:45:06;;;;;;;14.07;3.43;;;7.90;99.90;;;;;;5096743;28;20473;-76
2024/01/01 11:47:32;;;;;;;21.10;3.53;;;7.90;99.90;;;;;;5097099;28;20282;-75
2024/01/01 11:49:59;;;;;;;19.70;3.03;;;8.00;99.90;;;;;;5096988;28;20055;-76
2024/01/01 11:52:25;;;;;;;20.43;3.03;;;8.00;99.90;;;;;;5095486;28;20286;-74
2024/01/01 11:54:51;;;;;;;18.87;3.60;;;8.00;99.90;;;;;;5096580;28;20274;-71
2024/01/01 11:57:16;;;;;;;16.47;2.97;;;8.10;99.90;;;;;;5096138;28;20097;-73
2024/01/01 11:59:42;;;;;;;22.33;3.20;;;8.10;99.90;;;;;;5096754;28;20054;-73
2024/01/01 12:02:10;;;;;;;28.77;3.93;;;8.10;99.90;;;;;;5096431;28;20048;-73
2024/01/01 12:04:36;;;;;;;17.60;3.10;;;8.00;99.90;;;;;;5096916;28;20090;-72
2024/01/01 12:07:02;;;;;;;14.10;3.67;;;8.10;99.90;;;;;;5096350;28;20712;-71
2024/01/01 12:09:28;;;;;;;26.20;4.90;;;8.00;99.90;;;;;;5096134;28;20117;-72
2024/01/01 12:12:05;;;;;;;14.63;3.30;;;8.00;99.90;;;;;;5096235;28;20321;-71
2024/01/01 12:14:31;;;;;;;14.77;3.13;;;8.00;99.90;;;;;;5096299;28;20089;-71
2024/01/01 12:16:57;;;;;;;23.20;4.33;;;8.00;99.90;;;;;;5096318;28;20274;-73
2024/01/01 12:19:23;;;;;;;18.43;3.20;;;8.00;99.90;;;;;;5096003;28;20692;-72
2024/01/01 12:21:52;;;;;;;19.27;5.13;;;8.00;99.90;;;;;;5096127;28;20048;-75
2024/01/01 12:24:19;;;;;;;18.53;3.00;;;8.00;99.90;;;;;;5095708;28;20685;-72
2024/01/01 12:26:46;;;;;;;13.90;3.10;;;8.00;99.90;;;;;;5096115;28;20327;-74
2024/01/01 12:29:12;;;;;;;18.13;3.50;;;8.00;99.90;;;;;;5090017;28;20778;-74
2024/01/01 12:31:39;;;;;;;19.40;3.27;;;8.00;99.90;;;;;;5093929;28;20344;-74
2024/01/01 12:34:07;;;;;;;16.20;4.43;;;8.00;99.90;;;;;;5094532;28;20052;-74
2024/01/01 12:36:33;;;;;;;21.43;3.50;;;8.10;99.90;;;;;;5094208;28;20374;-73
2024/01/01 12:39:00;;;;;;;20.33;3.10;;;8.10;99.90;;;;;;5094543;28;20282;-74
2024/01/01 12:41:25;;;;;;;15.93;3.20;;;8.10;99.90;;;;;;5093360;28;20318;-73
2024/01/01 12:43:51;;;;;;;14.00;3.30;;;8.10;99.90;;;;;;5094816;28;20321;-74